Página principal
METAR-TAF:

METAR-TAF

Aeroportos :

Córdova, Espanha

latitude: 37-51N, longitude: 004-51W, altura: 90 m

Observação actual do tempo

O boletim foi feito há 4 horas e 17 minutos, às 00:30 UTC
Vento 1 kt com direcção variável
Temperatura 3°C
Humidade 70%
Pressão 1009 hPa
Visibilidade 10 km ou mais

METAR: LEBA 220030Z AUTO VRB01KT 9999 NCD 03/M02 Q1009

Hora: 05:47 (04:47 UTC)

Previsão

O boletim foi feito há 14 horas e 47 minutos, às 14:00 UTC
Previsão válida de 21 às 15 UTC a 21 às 24 UTC
Vento 9 kt de nor-nordeste
Visibilidade 10 km ou mais
sem nuvens abaixo de 1500 metros e sem cumulonimbus

TAF: LEBA 211400Z 2115/2124 02009KT CAVOK

Observações e previsões do tempo de mais de 4000 aeroportos (mensagens METAR e TAF).

As estações disponíveis são os pontos amarelos e vermelhos sobre o mapa.

Mova o rato sobre o mapa para ver o nome da estação.

Depois clique no ponto para visualizar as observações e previsões meteorológicas.

Para alterar o mapa : clique nos botões verdes com uma cruz preta para aumentar o zoom; no botão verde com uma pitada de zoom; ou nas setas verdes para mapas adjacentes.


METAR-TAF: